createdAt,value
2023-01-27T00:01:04.840Z,0
2023-01-27T00:02:21.140Z,0
2023-01-27T00:03:37.427Z,0
2023-01-27T00:04:53.721Z,0
2023-01-27T00:06:10.027Z,0
2023-01-27T00:07:26.326Z,0
2023-01-27T00:08:42.609Z,0
2023-01-27T00:09:57.921Z,0
2023-01-27T00:11:14.222Z,0
2023-01-27T00:12:30.506Z,0
2023-01-27T00:13:46.796Z,0
2023-01-27T00:15:03.108Z,0
2023-01-27T00:16:19.393Z,0
2023-01-27T00:17:35.677Z,0
2023-01-27T00:18:51.991Z,0
2023-01-27T00:20:08.267Z,0
2023-01-27T00:21:24.569Z,0
2023-01-27T00:22:40.859Z,0
2023-01-27T00:23:57.162Z,0
2023-01-27T00:25:13.000Z,0
2023-01-27T00:26:28.760Z,0
2023-01-27T00:27:45.055Z,0
2023-01-27T00:29:01.353Z,0
2023-01-27T00:30:17.649Z,0
2023-01-27T00:31:33.934Z,0
2023-01-27T00:32:50.224Z,0
2023-01-27T00:34:05.544Z,0
2023-01-27T00:35:21.835Z,0
2023-01-27T00:36:38.141Z,0
2023-01-27T00:37:54.425Z,0
2023-01-27T00:39:10.726Z,0
2023-01-27T00:40:27.014Z,0
2023-01-27T00:41:43.310Z,0
2023-01-27T00:42:59.596Z,0
2023-01-27T00:44:15.903Z,0
2023-01-27T00:45:32.185Z,0
2023-01-27T00:46:48.482Z,0
2023-01-27T00:48:04.770Z,0
2023-01-27T00:49:21.071Z,0
2023-01-27T00:50:36.395Z,0
2023-01-27T00:51:52.674Z,0
2023-01-27T00:53:08.970Z,0
2023-01-27T00:54:25.257Z,0
2023-01-27T00:55:41.547Z,0
2023-01-27T00:56:57.850Z,0
2023-01-27T00:58:14.143Z,0
2023-01-27T00:59:30.439Z,0
2023-01-27T01:00:46.732Z,0
2023-01-27T01:02:03.026Z,0
2023-01-27T01:03:19.337Z,0
2023-01-27T01:04:35.619Z,0
2023-01-27T01:05:51.914Z,0
2023-01-27T01:07:07.209Z,0
2023-01-27T01:08:23.515Z,0
2023-01-27T01:09:39.809Z,0
2023-01-27T01:10:56.103Z,0
2023-01-27T01:12:12.389Z,0
2023-01-27T01:13:28.680Z,0
2023-01-27T01:14:44.983Z,0
2023-01-27T01:16:01.267Z,0
2023-01-27T01:17:17.576Z,0
2023-01-27T01:18:33.855Z,0
2023-01-27T01:19:50.150Z,0
2023-01-27T01:21:06.452Z,0
2023-01-27T01:22:22.750Z,0
2023-01-27T01:23:38.059Z,0
2023-01-27T01:24:54.338Z,0
2023-01-27T01:26:10.636Z,0
2023-01-27T01:27:26.933Z,0
2023-01-27T01:28:43.236Z,0
2023-01-27T01:29:59.540Z,0
2023-01-27T01:31:15.811Z,0
2023-01-27T01:32:32.122Z,0
2023-01-27T01:33:48.408Z,0
2023-01-27T01:35:04.707Z,0
2023-01-27T01:36:20.995Z,0
2023-01-27T01:37:37.294Z,0
2023-01-27T01:38:53.582Z,0
2023-01-27T01:40:08.902Z,0
2023-01-27T01:41:25.177Z,0
2023-01-27T01:42:41.491Z,0
2023-01-27T01:43:57.787Z,0
2023-01-27T01:45:14.069Z,0
2023-01-27T01:46:30.364Z,0
2023-01-27T01:47:46.646Z,0
2023-01-27T01:49:02.945Z,0
2023-01-27T01:50:19.251Z,0
2023-01-27T01:51:35.553Z,0
2023-01-27T01:52:51.838Z,0
2023-01-27T01:54:08.140Z,0
2023-01-27T01:55:24.412Z,0
2023-01-27T01:56:39.733Z,0
2023-01-27T01:57:56.023Z,0
2023-01-27T01:59:12.309Z,0
2023-01-27T02:00:28.611Z,0
2023-01-27T02:01:44.905Z,0
2023-01-27T02:03:01.205Z,0
2023-01-27T02:04:17.497Z,0
2023-01-27T02:05:33.787Z,0
2023-01-27T02:06:50.078Z,0
2023-01-27T02:08:06.366Z,0
2023-01-27T02:09:22.668Z,0
2023-01-27T02:10:38.958Z,0
2023-01-27T02:11:55.251Z,0
2023-01-27T02:13:10.567Z,0
2023-01-27T02:14:26.850Z,0
2023-01-27T02:15:43.153Z,0
2023-01-27T02:16:59.453Z,0
2023-01-27T02:18:15.743Z,0
2023-01-27T02:19:32.033Z,0
2023-01-27T02:20:48.340Z,0
2023-01-27T02:22:04.643Z,0
2023-01-27T02:23:20.921Z,0
2023-01-27T02:24:37.213Z,0
2023-01-27T02:25:53.503Z,0
2023-01-27T02:27:09.805Z,0
2023-01-27T02:28:26.082Z,0
2023-01-27T02:29:41.410Z,0
2023-01-27T02:30:57.689Z,0
2023-01-27T02:32:13.993Z,0
2023-01-27T02:33:30.289Z,0
2023-01-27T02:34:46.576Z,0
2023-01-27T02:36:02.865Z,0
2023-01-27T02:37:19.173Z,0
2023-01-27T02:38:35.461Z,0
2023-01-27T02:39:51.754Z,0
2023-01-27T02:41:08.050Z,0
2023-01-27T02:42:24.347Z,0
2023-01-27T02:43:40.641Z,0
2023-01-27T02:44:56.919Z,0
2023-01-27T02:46:12.245Z,0
2023-01-27T02:47:28.526Z,0
2023-01-27T02:48:44.835Z,0
2023-01-27T02:50:01.118Z,0
2023-01-27T02:51:17.426Z,0
2023-01-27T02:52:33.700Z,0
2023-01-27T02:53:50.015Z,0
2023-01-27T02:55:06.292Z,0
2023-01-27T02:56:22.585Z,0
2023-01-27T02:57:38.895Z,0
2023-01-27T02:58:55.185Z,0
2023-01-27T03:00:11.468Z,0
2023-01-27T03:01:27.771Z,0
2023-01-27T03:02:43.081Z,0
2023-01-27T03:03:59.371Z,0
2023-01-27T03:05:15.661Z,0
2023-01-27T03:06:31.960Z,0
2023-01-27T03:07:48.246Z,0
2023-01-27T03:09:04.539Z,0
2023-01-27T03:10:20.844Z,0
2023-01-27T03:11:37.124Z,0
2023-01-27T03:12:53.432Z,0
2023-01-27T03:14:09.713Z,0
2023-01-27T03:15:26.005Z,0
2023-01-27T03:16:42.298Z,0
2023-01-27T03:17:58.609Z,0
2023-01-27T03:19:13.923Z,0
2023-01-27T03:20:30.210Z,0
2023-01-27T03:21:46.492Z,0
2023-01-27T03:23:02.794Z,0
2023-01-27T03:24:19.082Z,0
2023-01-27T03:25:35.380Z,0
2023-01-27T03:26:51.678Z,0
2023-01-27T03:28:07.967Z,0
2023-01-27T03:29:24.271Z,0
2023-01-27T03:30:40.559Z,0
2023-01-27T03:31:56.852Z,0
2023-01-27T03:33:13.144Z,0
2023-01-27T03:34:29.430Z,0
2023-01-27T03:35:44.748Z,0
2023-01-27T03:37:01.045Z,0
2023-01-27T03:38:17.331Z,0
2023-01-27T03:39:33.637Z,0
2023-01-27T03:40:49.935Z,0
2023-01-27T03:42:06.220Z,0
2023-01-27T03:43:22.506Z,0
2023-01-27T03:44:38.811Z,0
2023-01-27T03:45:55.094Z,0
2023-01-27T03:47:11.389Z,0
2023-01-27T03:48:27.696Z,0
2023-01-27T03:49:43.992Z,0
2023-01-27T03:51:00.288Z,0
2023-01-27T03:52:15.587Z,0
2023-01-27T03:53:31.873Z,0
2023-01-27T03:54:48.182Z,0
2023-01-27T03:56:04.476Z,0
2023-01-27T03:57:20.774Z,0
2023-01-27T03:58:37.063Z,0
2023-01-27T03:59:53.353Z,0
2023-01-27T04:01:09.641Z,0
2023-01-27T04:02:25.936Z,0
2023-01-27T04:03:42.234Z,0
2023-01-27T04:04:58.523Z,0
2023-01-27T04:06:14.813Z,0
2023-01-27T04:07:31.109Z,0
2023-01-27T04:08:46.431Z,0
2023-01-27T04:10:02.732Z,0
2023-01-27T04:11:19.006Z,0
2023-01-27T04:12:35.299Z,0
2023-01-27T04:13:51.603Z,0
2023-01-27T04:15:07.892Z,0
2023-01-27T04:16:24.191Z,0
2023-01-27T04:17:40.486Z,0
2023-01-27T04:18:56.775Z,0
2023-01-27T04:20:13.060Z,0
2023-01-27T04:21:29.361Z,0
2023-01-27T04:22:45.661Z,0
2023-01-27T04:24:01.949Z,0
2023-01-27T04:25:17.261Z,0
2023-01-27T04:26:33.563Z,0
2023-01-27T04:27:49.852Z,0
2023-01-27T04:29:06.141Z,0
2023-01-27T04:30:22.430Z,0
2023-01-27T04:31:38.730Z,0
2023-01-27T04:32:55.033Z,0
2023-01-27T04:34:11.326Z,0
2023-01-27T04:35:27.607Z,0
2023-01-27T04:36:43.898Z,0
2023-01-27T04:38:00.208Z,0
2023-01-27T04:39:16.486Z,0
2023-01-27T04:40:32.790Z,0
2023-01-27T04:41:48.098Z,0
2023-01-27T04:43:04.393Z,0
2023-01-27T04:44:20.690Z,0
2023-01-27T04:45:36.983Z,0
2023-01-27T04:46:53.269Z,0
2023-01-27T04:48:09.568Z,0
2023-01-27T04:49:24.874Z,0
2023-01-27T04:50:41.189Z,0
2023-01-27T04:51:57.489Z,0
2023-01-27T04:53:13.775Z,0
2023-01-27T04:54:30.076Z,0
2023-01-27T04:55:46.348Z,0
2023-01-27T04:57:02.650Z,0
2023-01-27T04:58:18.933Z,0
2023-01-27T04:59:35.244Z,0
2023-01-27T05:00:51.524Z,0
2023-01-27T05:02:07.826Z,0
2023-01-27T05:03:24.125Z,0
2023-01-27T05:04:40.425Z,0
2023-01-27T05:05:55.728Z,0
2023-01-27T05:07:12.013Z,0
2023-01-27T05:08:28.303Z,0
2023-01-27T05:09:44.607Z,0
2023-01-27T05:11:00.890Z,0
2023-01-27T05:12:17.208Z,0
2023-01-27T05:13:33.475Z,0
2023-01-27T05:14:49.785Z,0
2023-01-27T05:16:06.070Z,0
2023-01-27T05:17:22.363Z,0
2023-01-27T05:18:38.656Z,0
2023-01-27T05:19:54.955Z,0
2023-01-27T05:21:11.238Z,0
2023-01-27T05:22:26.568Z,0
2023-01-27T05:23:42.859Z,0
2023-01-27T05:24:59.152Z,0
2023-01-27T05:26:15.452Z,0
2023-01-27T05:27:31.751Z,0
2023-01-27T05:28:48.030Z,0
2023-01-27T05:30:04.322Z,0
2023-01-27T05:31:20.620Z,0
2023-01-27T05:32:36.911Z,0
2023-01-27T05:33:53.208Z,0
2023-01-27T05:35:09.505Z,0
2023-01-27T05:36:25.780Z,0
2023-01-27T05:37:42.105Z,0
2023-01-27T05:38:57.392Z,0
2023-01-27T05:40:13.709Z,0
2023-01-27T05:41:29.989Z,0
2023-01-27T05:42:46.289Z,0
2023-01-27T05:44:02.567Z,0
2023-01-27T05:45:18.871Z,0
2023-01-27T05:46:35.157Z,0
2023-01-27T05:47:51.462Z,0
2023-01-27T05:49:07.736Z,0
2023-01-27T05:50:24.043Z,0
2023-01-27T05:51:40.332Z,0
2023-01-27T05:52:56.619Z,0
2023-01-27T05:54:12.923Z,0
2023-01-27T05:55:28.239Z,0
2023-01-27T05:56:44.514Z,0
2023-01-27T05:58:00.822Z,0
2023-01-27T05:59:17.112Z,0
2023-01-27T06:00:33.410Z,0
2023-01-27T06:01:49.692Z,0
2023-01-27T06:03:05.989Z,0
2023-01-27T06:04:22.292Z,0
2023-01-27T06:05:38.586Z,0
2023-01-27T06:06:54.882Z,0
2023-01-27T06:08:11.168Z,0
2023-01-27T06:09:27.469Z,0
2023-01-27T06:10:43.754Z,0
2023-01-27T06:11:59.064Z,0
2023-01-27T06:13:15.368Z,0
2023-01-27T06:14:31.663Z,0
2023-01-27T06:15:47.939Z,0
2023-01-27T06:17:04.252Z,0
2023-01-27T06:18:20.543Z,0
2023-01-27T06:19:36.827Z,0
2023-01-27T06:20:53.120Z,0
2023-01-27T06:22:09.414Z,0
2023-01-27T06:23:25.721Z,0
2023-01-27T06:24:42.026Z,0
2023-01-27T06:25:58.302Z,0
2023-01-27T06:27:14.593Z,0
2023-01-27T06:28:29.919Z,0
2023-01-27T06:29:46.208Z,0
2023-01-27T06:31:02.443Z,1
2023-01-27T06:32:18.734Z,0
2023-01-27T06:33:34.989Z,1
2023-01-27T06:34:51.224Z,1
2023-01-27T06:36:07.516Z,0
2023-01-27T06:37:23.802Z,0
2023-01-27T06:38:40.055Z,2
2023-01-27T06:39:56.000Z,1
2023-01-27T06:41:12.610Z,0
2023-01-27T06:42:28.844Z,2
2023-01-27T06:43:45.081Z,1
2023-01-27T06:45:01.322Z,1
2023-01-27T06:46:16.591Z,5
2023-01-27T06:47:32.828Z,6
2023-01-27T06:48:49.068Z,6
2023-01-27T06:50:05.313Z,2
2023-01-27T06:51:21.541Z,6
2023-01-27T06:52:37.784Z,8
2023-01-27T06:53:54.017Z,5
2023-01-27T06:55:10.281Z,6
2023-01-27T06:56:26.518Z,8
2023-01-27T06:57:42.736Z,11
2023-01-27T06:58:58.975Z,10
2023-01-27T07:00:15.227Z,11
2023-01-27T07:01:31.463Z,17
2023-01-27T07:02:46.721Z,23
2023-01-27T07:04:02.968Z,24
2023-01-27T07:05:19.203Z,24
2023-01-27T07:06:35.438Z,28
2023-01-27T07:07:51.673Z,28
2023-01-27T07:09:07.940Z,27
2023-01-27T07:10:24.150Z,27
2023-01-27T07:12:56.631Z,31
2023-01-27T07:14:12.885Z,33
2023-01-27T07:15:29.120Z,31
2023-01-27T07:16:45.362Z,27
2023-01-27T07:18:01.603Z,19
2023-01-27T07:19:16.874Z,24
2023-01-27T07:20:33.088Z,31
2023-01-27T07:21:49.326Z,32
2023-01-27T07:23:05.572Z,28
2023-01-27T07:24:21.819Z,26
2023-01-27T07:25:38.056Z,30
2023-01-27T07:26:54.286Z,29
2023-01-27T07:28:10.527Z,34
2023-01-27T07:29:26.781Z,37
2023-01-27T07:30:43.034Z,38
2023-01-27T07:31:59.245Z,33
2023-01-27T07:33:15.486Z,24
2023-01-27T07:34:31.737Z,25
2023-01-27T07:35:46.984Z,36
2023-01-27T07:37:03.235Z,43
2023-01-27T07:38:19.467Z,41
2023-01-27T07:39:35.721Z,40
2023-01-27T07:40:51.943Z,42
2023-01-27T07:42:08.198Z,42
2023-01-27T07:43:24.428Z,41
2023-01-27T07:44:40.660Z,41
2023-01-27T07:45:56.913Z,39
2023-01-27T07:47:13.159Z,40
2023-01-27T07:48:29.394Z,36
2023-01-27T07:49:45.627Z,32
2023-01-27T07:51:01.871Z,34
2023-01-27T07:52:17.122Z,29
2023-01-27T07:53:33.368Z,33
2023-01-27T07:54:49.601Z,36
2023-01-27T07:56:05.836Z,43
2023-01-27T07:57:22.095Z,47
2023-01-27T07:58:38.317Z,50
2023-01-27T07:59:54.559Z,52
2023-01-27T08:01:10.813Z,55
2023-01-27T08:02:27.044Z,69
2023-01-27T08:03:43.291Z,67
2023-01-27T08:04:59.516Z,70
2023-01-27T08:06:15.771Z,70
2023-01-27T08:07:32.007Z,71
2023-01-27T08:08:47.263Z,76
2023-01-27T08:10:03.516Z,81
2023-01-27T08:11:19.734Z,83
2023-01-27T08:12:35.995Z,82
2023-01-27T08:13:52.231Z,75
2023-01-27T08:15:08.459Z,78
2023-01-27T08:16:24.710Z,84
2023-01-27T08:17:40.943Z,85
2023-01-27T08:18:57.181Z,96
2023-01-27T08:20:13.423Z,105
2023-01-27T08:21:29.656Z,102
2023-01-27T08:22:45.918Z,92
2023-01-27T08:24:02.146Z,96
2023-01-27T08:25:17.413Z,94
2023-01-27T08:26:33.651Z,96
2023-01-27T08:27:49.886Z,98
2023-01-27T08:29:06.116Z,108
2023-01-27T08:30:22.365Z,120
2023-01-27T08:31:38.609Z,123
2023-01-27T08:32:54.839Z,134
2023-01-27T08:34:11.076Z,147
2023-01-27T08:35:27.320Z,132
2023-01-27T08:36:43.551Z,118
2023-01-27T08:37:59.800Z,102
2023-01-27T08:39:16.026Z,98
2023-01-27T08:40:32.286Z,106
2023-01-27T08:41:47.546Z,106
2023-01-27T08:43:03.774Z,110
2023-01-27T08:44:20.019Z,120
2023-01-27T08:45:36.246Z,119
2023-01-27T08:46:52.494Z,125
2023-01-27T08:48:08.730Z,139
2023-01-27T08:49:24.968Z,133
2023-01-27T08:50:41.208Z,119
2023-01-27T08:51:57.450Z,118
2023-01-27T08:53:13.693Z,130
2023-01-27T08:54:29.922Z,119
2023-01-27T08:55:46.175Z,134
2023-01-27T08:57:02.411Z,144
2023-01-27T08:58:17.667Z,152
2023-01-27T08:59:33.913Z,151
2023-01-27T09:00:50.141Z,151
2023-01-27T09:02:06.393Z,147
2023-01-27T09:03:22.624Z,151
2023-01-27T09:04:37.893Z,148
2023-01-27T09:05:54.134Z,147
2023-01-27T09:07:10.375Z,157
2023-01-27T09:08:26.605Z,149
2023-01-27T09:09:42.837Z,161
2023-01-27T09:10:59.093Z,159
2023-01-27T09:12:15.325Z,164
2023-01-27T09:13:31.565Z,164
2023-01-27T09:14:47.806Z,153
2023-01-27T09:16:04.050Z,165
2023-01-27T09:17:20.290Z,180
2023-01-27T09:18:36.531Z,163
2023-01-27T09:19:52.769Z,156
2023-01-27T09:21:08.028Z,155
2023-01-27T09:22:24.255Z,155
2023-01-27T09:23:40.504Z,151
2023-01-27T09:24:56.743Z,182
2023-01-27T09:26:12.987Z,185
2023-01-27T09:27:29.215Z,181
2023-01-27T09:28:45.456Z,166
2023-01-27T09:30:01.715Z,166
2023-01-27T09:31:17.946Z,193
2023-01-27T09:32:34.177Z,186
2023-01-27T09:33:50.420Z,175
2023-01-27T09:35:06.658Z,179
2023-01-27T09:36:22.899Z,187
2023-01-27T09:37:38.150Z,214
2023-01-27T09:38:54.389Z,213
2023-01-27T09:40:10.637Z,207
2023-01-27T09:41:26.883Z,233
2023-01-27T09:42:43.137Z,223
2023-01-27T09:43:59.346Z,215
2023-01-27T09:45:15.602Z,187
2023-01-27T09:46:31.832Z,188
2023-01-27T09:47:48.081Z,211
2023-01-27T09:49:04.311Z,213
2023-01-27T09:50:20.565Z,211
2023-01-27T09:51:36.795Z,210
2023-01-27T09:52:53.047Z,215
2023-01-27T09:54:08.297Z,200
2023-01-27T09:55:24.543Z,182
2023-01-27T09:56:40.779Z,171
2023-01-27T09:57:57.012Z,176
2023-01-27T09:59:13.251Z,164
2023-01-27T10:00:29.481Z,155
2023-01-27T10:01:45.725Z,162
2023-01-27T10:03:01.986Z,166
2023-01-27T10:04:18.220Z,165
2023-01-27T10:05:34.446Z,166
2023-01-27T10:06:50.684Z,166
2023-01-27T10:08:06.934Z,141
2023-01-27T10:09:23.175Z,146
2023-01-27T10:10:38.425Z,170
2023-01-27T10:11:54.658Z,188
2023-01-27T10:13:10.915Z,182
2023-01-27T10:14:27.150Z,174
2023-01-27T10:15:43.389Z,153
2023-01-27T10:16:59.634Z,154
2023-01-27T10:18:15.883Z,151
2023-01-27T10:19:32.097Z,140
2023-01-27T10:20:48.349Z,130
2023-01-27T10:22:04.585Z,132
2023-01-27T10:23:20.834Z,136
2023-01-27T10:24:37.067Z,142
2023-01-27T10:25:53.321Z,137
2023-01-27T10:27:08.550Z,126
2023-01-27T10:28:24.803Z,133
2023-01-27T10:29:41.045Z,143
2023-01-27T10:30:57.290Z,149
2023-01-27T10:32:13.514Z,141
2023-01-27T10:33:29.761Z,154
2023-01-27T10:34:45.998Z,154
2023-01-27T10:36:02.240Z,164
2023-01-27T10:38:34.730Z,200
2023-01-27T10:39:50.967Z,182
2023-01-27T10:41:07.202Z,155
2023-01-27T10:42:23.433Z,199
2023-01-27T10:43:38.704Z,228
2023-01-27T10:44:54.929Z,222
2023-01-27T10:46:11.177Z,211
2023-01-27T10:47:27.417Z,201
2023-01-27T10:48:43.657Z,213
2023-01-27T10:49:59.904Z,212
2023-01-27T10:51:16.125Z,188
2023-01-27T10:52:32.385Z,225
2023-01-27T10:53:48.617Z,250
2023-01-27T10:55:04.861Z,198
2023-01-27T10:56:21.114Z,256
2023-01-27T10:57:37.329Z,211
2023-01-27T10:58:53.565Z,243
2023-01-27T11:00:08.827Z,237
2023-01-27T11:01:25.070Z,297
2023-01-27T11:02:41.307Z,333
2023-01-27T11:03:57.560Z,363
2023-01-27T11:05:13.793Z,269
2023-01-27T11:06:30.019Z,211
2023-01-27T11:07:46.277Z,253
2023-01-27T11:09:02.508Z,360
2023-01-27T11:10:18.755Z,286
2023-01-27T11:11:34.990Z,281
2023-01-27T11:12:51.225Z,261
2023-01-27T11:14:07.490Z,315
2023-01-27T11:15:23.706Z,241
2023-01-27T11:16:38.960Z,261
2023-01-27T11:17:55.206Z,240
2023-01-27T11:19:11.434Z,229
2023-01-27T11:20:27.681Z,224
2023-01-27T11:21:43.934Z,213
2023-01-27T11:23:00.163Z,283
2023-01-27T11:24:16.406Z,290
2023-01-27T11:25:32.641Z,251
2023-01-27T11:26:48.876Z,305
2023-01-27T11:28:05.126Z,303
2023-01-27T11:29:21.364Z,230
2023-01-27T11:30:37.604Z,234
2023-01-27T11:31:53.835Z,203
2023-01-27T11:33:09.095Z,182
2023-01-27T11:34:25.355Z,192
2023-01-27T11:35:41.570Z,187
2023-01-27T11:36:57.825Z,184
2023-01-27T11:38:14.067Z,180
2023-01-27T11:39:30.314Z,170
2023-01-27T11:40:46.542Z,174
2023-01-27T11:42:02.774Z,180
2023-01-27T11:43:19.022Z,192
2023-01-27T11:44:35.274Z,233
2023-01-27T11:45:51.502Z,219
2023-01-27T11:47:07.736Z,180
2023-01-27T11:48:23.978Z,171
2023-01-27T11:49:39.243Z,228
2023-01-27T11:50:55.463Z,219
2023-01-27T11:52:11.707Z,269
2023-01-27T11:53:27.953Z,284
2023-01-27T11:54:44.199Z,290
2023-01-27T11:56:00.441Z,258
2023-01-27T11:57:16.668Z,248
2023-01-27T11:58:32.919Z,242
2023-01-27T11:59:49.176Z,204
2023-01-27T12:01:05.389Z,218
2023-01-27T12:02:21.639Z,225
2023-01-27T12:03:37.871Z,223
2023-01-27T12:04:54.120Z,246
2023-01-27T12:06:09.376Z,228
2023-01-27T12:07:25.615Z,241
2023-01-27T12:08:41.849Z,257
2023-01-27T12:09:58.092Z,246
2023-01-27T12:11:14.323Z,273
2023-01-27T12:12:30.575Z,292
2023-01-27T12:13:46.820Z,250
2023-01-27T12:15:03.044Z,279
2023-01-27T12:16:19.283Z,262
2023-01-27T12:17:35.537Z,235
2023-01-27T12:18:51.762Z,224
2023-01-27T12:20:08.014Z,210
2023-01-27T12:21:24.243Z,236
2023-01-27T12:22:39.526Z,220
2023-01-27T12:23:55.733Z,218
2023-01-27T12:25:11.988Z,242
2023-01-27T12:26:28.221Z,271
2023-01-27T12:27:44.460Z,343
2023-01-27T12:29:00.694Z,387
2023-01-27T12:30:16.940Z,379
2023-01-27T12:31:33.184Z,297
2023-01-27T12:32:49.418Z,277
2023-01-27T12:34:05.660Z,373
2023-01-27T12:35:21.912Z,423
2023-01-27T12:36:38.137Z,404
2023-01-27T12:37:54.400Z,317
2023-01-27T12:39:09.633Z,313
2023-01-27T12:40:25.883Z,275
2023-01-27T12:41:42.139Z,251
2023-01-27T12:42:58.370Z,274
2023-01-27T12:44:14.600Z,253
2023-01-27T12:45:30.829Z,282
2023-01-27T12:46:47.080Z,331
2023-01-27T12:48:03.329Z,292
2023-01-27T12:49:19.558Z,335
2023-01-27T12:50:35.793Z,301
2023-01-27T12:51:52.029Z,243
2023-01-27T12:53:08.265Z,292
2023-01-27T12:54:24.511Z,251
2023-01-27T12:55:39.798Z,207
2023-01-27T12:56:56.005Z,164
2023-01-27T12:58:12.271Z,232
2023-01-27T12:59:28.483Z,316
2023-01-27T13:00:44.726Z,243
2023-01-27T13:02:00.968Z,153
2023-01-27T13:03:17.217Z,147
2023-01-27T13:04:33.458Z,224
2023-01-27T13:05:49.686Z,258
2023-01-27T13:07:05.952Z,211
2023-01-27T13:08:22.189Z,140
2023-01-27T13:09:38.413Z,199
2023-01-27T13:10:54.659Z,275
2023-01-27T13:12:09.905Z,454
2023-01-27T13:13:26.140Z,388
2023-01-27T13:14:42.394Z,285
2023-01-27T13:15:58.619Z,207
2023-01-27T13:17:14.858Z,312
2023-01-27T13:18:31.101Z,344
2023-01-27T13:19:46.359Z,277
2023-01-27T13:21:02.617Z,246
2023-01-27T13:22:18.840Z,300
2023-01-27T13:23:35.094Z,382
2023-01-27T13:24:51.322Z,240
2023-01-27T13:26:07.575Z,233
2023-01-27T13:27:23.811Z,202
2023-01-27T13:28:40.048Z,154
2023-01-27T13:29:56.281Z,149
2023-01-27T13:31:12.534Z,131
2023-01-27T13:32:28.766Z,145
2023-01-27T13:33:45.004Z,181
2023-01-27T13:35:01.254Z,198
2023-01-27T13:36:16.517Z,138
2023-01-27T13:37:32.750Z,85
2023-01-27T13:38:48.989Z,104
2023-01-27T13:40:05.224Z,114
2023-01-27T13:41:21.450Z,129
2023-01-27T13:42:37.714Z,104
2023-01-27T13:43:53.963Z,102
2023-01-27T13:45:10.171Z,127
2023-01-27T13:46:26.437Z,139
2023-01-27T13:47:42.658Z,114
2023-01-27T13:48:58.888Z,108
2023-01-27T13:50:15.130Z,105
2023-01-27T13:51:31.369Z,108
2023-01-27T13:52:46.640Z,126
2023-01-27T13:54:02.874Z,115
2023-01-27T13:55:19.124Z,122
2023-01-27T13:56:35.354Z,116
2023-01-27T13:57:51.604Z,76
2023-01-27T13:59:07.837Z,105
2023-01-27T14:00:24.067Z,102
2023-01-27T14:01:40.303Z,100
2023-01-27T14:02:56.547Z,100
2023-01-27T14:04:12.796Z,107
2023-01-27T14:05:29.024Z,114
2023-01-27T14:06:45.266Z,94
2023-01-27T14:08:01.516Z,93
2023-01-27T14:09:16.759Z,91
2023-01-27T14:10:33.014Z,79
2023-01-27T14:11:49.247Z,90
2023-01-27T14:13:05.482Z,73
2023-01-27T14:14:21.718Z,102
2023-01-27T14:15:37.976Z,110
2023-01-27T14:16:54.199Z,111
2023-01-27T14:18:10.440Z,142
2023-01-27T14:19:26.686Z,159
2023-01-27T14:20:42.927Z,119
2023-01-27T14:21:59.160Z,143
2023-01-27T14:23:15.413Z,131
2023-01-27T14:24:31.656Z,92
2023-01-27T14:25:46.899Z,106
2023-01-27T14:27:03.147Z,110
2023-01-27T14:28:19.386Z,74
2023-01-27T14:29:35.615Z,100
2023-01-27T14:30:51.866Z,126
2023-01-27T14:32:08.091Z,91
2023-01-27T14:33:24.331Z,86
2023-01-27T14:34:40.570Z,99
2023-01-27T14:35:56.816Z,78
2023-01-27T14:37:13.065Z,94
2023-01-27T14:38:29.295Z,98
2023-01-27T14:39:45.530Z,111
2023-01-27T14:41:01.786Z,93
2023-01-27T14:42:17.043Z,94
2023-01-27T14:43:33.273Z,122
2023-01-27T14:44:49.508Z,108
2023-01-27T14:46:05.759Z,93
2023-01-27T14:47:21.995Z,119
2023-01-27T14:48:38.242Z,142
2023-01-27T14:49:54.473Z,89
2023-01-27T14:51:10.727Z,153
2023-01-27T14:52:26.949Z,96
2023-01-27T14:53:43.197Z,112
2023-01-27T14:54:59.436Z,146
2023-01-27T14:56:15.673Z,127
2023-01-27T14:57:31.903Z,87
2023-01-27T14:58:47.160Z,80
2023-01-27T15:00:03.406Z,80
2023-01-27T15:01:19.653Z,108
2023-01-27T15:02:35.890Z,113
2023-01-27T15:03:52.133Z,111
2023-01-27T15:05:08.367Z,85
2023-01-27T15:06:24.601Z,68
2023-01-27T15:07:40.850Z,71
2023-01-27T15:08:57.078Z,80
2023-01-27T15:10:13.322Z,66
2023-01-27T15:11:29.563Z,60
2023-01-27T15:12:45.807Z,47
2023-01-27T15:14:02.041Z,49
2023-01-27T15:15:17.312Z,56
2023-01-27T15:16:33.533Z,64
2023-01-27T15:17:49.773Z,57
2023-01-27T15:19:06.028Z,47
2023-01-27T15:20:22.253Z,47
2023-01-27T15:21:38.508Z,50
2023-01-27T15:22:54.745Z,70
2023-01-27T15:24:10.983Z,64
2023-01-27T15:25:27.221Z,55
2023-01-27T15:26:43.467Z,59
2023-01-27T15:27:59.698Z,60
2023-01-27T15:29:15.950Z,62
2023-01-27T15:30:32.181Z,62
2023-01-27T15:31:47.441Z,67
2023-01-27T15:33:03.668Z,51
2023-01-27T15:34:19.919Z,45
2023-01-27T15:35:36.157Z,37
2023-01-27T15:36:52.396Z,32
2023-01-27T15:38:08.643Z,32
2023-01-27T15:39:24.873Z,35
2023-01-27T15:40:41.118Z,35
2023-01-27T15:41:57.350Z,29
2023-01-27T15:43:13.597Z,21
2023-01-27T15:44:29.834Z,25
2023-01-27T15:45:46.066Z,18
2023-01-27T15:47:02.311Z,13
2023-01-27T15:48:17.578Z,17
2023-01-27T15:49:33.809Z,12
2023-01-27T15:50:50.050Z,8
2023-01-27T15:52:06.290Z,8
2023-01-27T15:53:22.537Z,7
2023-01-27T15:54:38.759Z,10
2023-01-27T15:55:55.008Z,6
2023-01-27T15:57:11.248Z,4
2023-01-27T15:58:27.494Z,2
2023-01-27T15:59:43.723Z,1
2023-01-27T16:00:59.970Z,5
2023-01-27T16:02:16.205Z,6
2023-01-27T16:03:32.450Z,2
2023-01-27T16:04:47.709Z,1
2023-01-27T16:06:03.943Z,1
2023-01-27T16:07:20.202Z,2
2023-01-27T16:08:36.444Z,1
2023-01-27T16:09:52.732Z,0
2023-01-27T16:11:09.020Z,0
2023-01-27T16:12:25.323Z,0
2023-01-27T16:13:41.558Z,1
2023-01-27T16:14:57.799Z,1
2023-01-27T16:16:14.030Z,1
2023-01-27T16:17:30.324Z,0
2023-01-27T16:18:46.637Z,0
2023-01-27T16:20:02.927Z,0
2023-01-27T16:21:18.236Z,0
2023-01-27T16:22:34.528Z,0
2023-01-27T16:23:50.813Z,0
2023-01-27T16:25:07.116Z,0
2023-01-27T16:26:23.405Z,0
2023-01-27T16:27:39.707Z,0
2023-01-27T16:28:55.990Z,0
2023-01-27T16:30:12.278Z,0
2023-01-27T16:31:28.573Z,0
2023-01-27T16:32:44.879Z,0
2023-01-27T16:34:01.169Z,0
2023-01-27T16:35:17.466Z,0
2023-01-27T16:36:33.756Z,0
2023-01-27T16:37:49.065Z,0
2023-01-27T16:39:05.354Z,0
2023-01-27T16:40:21.657Z,0
2023-01-27T16:41:37.958Z,0
2023-01-27T16:42:54.248Z,0
2023-01-27T16:44:10.538Z,0
2023-01-27T16:45:26.000Z,0
2023-01-27T16:46:43.127Z,0
2023-01-27T16:47:59.412Z,0
2023-01-27T16:49:15.719Z,0
2023-01-27T16:50:31.993Z,0
2023-01-27T16:51:48.295Z,0
2023-01-27T16:53:04.599Z,0
2023-01-27T16:54:19.902Z,0
2023-01-27T16:55:36.192Z,0
2023-01-27T16:56:52.481Z,0
2023-01-27T16:58:08.772Z,0
2023-01-27T16:59:25.068Z,0
2023-01-27T17:00:41.369Z,0
2023-01-27T17:01:57.656Z,0
2023-01-27T17:03:13.959Z,0
2023-01-27T17:04:30.253Z,0
2023-01-27T17:05:46.553Z,0
2023-01-27T17:07:02.836Z,0
2023-01-27T17:08:19.127Z,0
2023-01-27T17:10:51.710Z,0
2023-01-27T17:12:07.034Z,0
2023-01-27T17:13:23.324Z,0
2023-01-27T17:14:39.607Z,0
2023-01-27T17:15:55.915Z,0
2023-01-27T17:17:12.198Z,0
2023-01-27T17:18:28.487Z,0
2023-01-27T17:19:44.800Z,0
2023-01-27T17:21:01.087Z,0
2023-01-27T17:22:17.378Z,0
2023-01-27T17:23:33.672Z,0
2023-01-27T17:24:49.966Z,0
2023-01-27T17:26:06.254Z,0
2023-01-27T17:27:22.552Z,0
2023-01-27T17:28:37.874Z,0
2023-01-27T17:29:54.152Z,0
2023-01-27T17:31:10.453Z,0
2023-01-27T17:32:26.743Z,0
2023-01-27T17:33:43.046Z,0
2023-01-27T17:34:58.353Z,0
2023-01-27T17:36:14.644Z,0
2023-01-27T17:37:30.953Z,0
2023-01-27T17:38:47.229Z,0
2023-01-27T17:40:03.522Z,0
2023-01-27T17:41:19.833Z,0
2023-01-27T17:42:36.109Z,0
2023-01-27T17:43:52.405Z,0
2023-01-27T17:45:08.702Z,0
2023-01-27T17:46:24.994Z,0
2023-01-27T17:47:41.302Z,0
2023-01-27T17:48:57.586Z,0
2023-01-27T17:50:13.883Z,0
2023-01-27T17:51:29.185Z,0
2023-01-27T17:52:45.489Z,0
2023-01-27T17:54:01.778Z,0
2023-01-27T17:55:18.079Z,0
2023-01-27T17:56:34.363Z,0
2023-01-27T17:57:50.655Z,0
2023-01-27T17:59:06.944Z,0
2023-01-27T18:00:23.247Z,0
2023-01-27T18:01:39.536Z,0
2023-01-27T18:02:55.827Z,0
2023-01-27T18:04:12.127Z,0
2023-01-27T18:05:28.430Z,0
2023-01-27T18:06:44.706Z,0
2023-01-27T18:08:00.020Z,0
2023-01-27T18:09:16.309Z,0
2023-01-27T18:10:32.610Z,0
2023-01-27T18:11:48.912Z,0
2023-01-27T18:13:05.200Z,0
2023-01-27T18:14:21.503Z,0
2023-01-27T18:15:37.793Z,0
2023-01-27T18:16:54.076Z,0
2023-01-27T18:18:10.371Z,0